Weather at Tikchik Lodge Seaplane Base

Public forecast

Using degrees Fahrenheit for public forecast. Weather courtesy of forecast.io.

Closest aviation weather report (METAR) to Tikchik Lodge Seaplane Base

Closest report is Koliganek Airport, 39.4 nm (72.9 km) ESE. Retrieved 2021/06/13 16:56 UTC (10 minutes ago):

PAJZ 131656Z AUTO 20004KT 7SM CLR 09/06 A2999 RMK AO2 SLP165 T00890061

Closest aviation forecast (TAF) to Tikchik Lodge Seaplane Base

Closest forecast is Dillingham Airport, 55.2 nm (102.1 km) S. Retrieved 2021/06/13 12:45 UTC (4 hours ago):

TAF PADL 131143Z 1312/1412 VRB06KT P6SM OVC035 FM132100 15008KT P6SM OVC050